createdAt,value
2022-12-23T00:00:54.268Z,1.15
2022-12-23T00:03:22.386Z,0.95
2022-12-23T00:05:50.267Z,1.15
2022-12-23T00:08:18.243Z,1.05
2022-12-23T00:10:45.640Z,1.10
2022-12-23T00:13:31.668Z,1.00
2022-12-23T00:16:14.404Z,0.98
2022-12-23T00:18:43.283Z,1.90
2022-12-23T00:21:14.273Z,1.63
2022-12-23T00:23:45.010Z,1.40
2022-12-23T00:26:22.320Z,1.08
2022-12-23T00:28:50.469Z,2.10
2022-12-23T00:31:19.511Z,2.00
2022-12-23T00:33:50.967Z,1.40
2022-12-23T00:36:24.879Z,1.52
2022-12-23T00:39:10.964Z,1.55
2022-12-23T00:41:57.520Z,1.30
2022-12-23T00:44:25.733Z,1.10
2022-12-23T00:46:54.223Z,1.05
2022-12-23T00:49:40.563Z,1.05
2022-12-23T00:52:14.152Z,1.10
2022-12-23T00:54:41.926Z,1.48
2022-12-23T00:57:09.992Z,1.38
2022-12-23T00:59:37.588Z,1.40
2022-12-23T01:02:23.775Z,1.25
2022-12-23T01:05:09.751Z,3.20
2022-12-23T01:07:42.380Z,1.95
2022-12-23T01:10:10.317Z,1.15
2022-12-23T01:12:37.829Z,1.20
2022-12-23T01:15:06.002Z,1.27
2022-12-23T01:17:33.642Z,1.90
2022-12-23T01:20:01.227Z,2.20
2022-12-23T01:22:28.847Z,1.92
2022-12-23T01:24:56.417Z,2.22
2022-12-23T01:27:23.875Z,2.00
2022-12-23T01:29:51.384Z,1.45
2022-12-23T01:32:19.796Z,1.73
2022-12-23T01:34:47.290Z,1.88
2022-12-23T01:37:15.009Z,2.58
2022-12-23T01:39:42.446Z,2.22
2022-12-23T01:42:33.431Z,2.25
2022-12-23T01:45:02.412Z,2.72
2022-12-23T01:47:52.822Z,4.15
2022-12-23T01:50:30.301Z,2.72
2022-12-23T01:53:08.896Z,2.75
2022-12-23T01:56:05.041Z,2.80
2022-12-23T01:58:38.145Z,2.58
2022-12-23T02:01:25.337Z,2.42
2022-12-23T02:03:57.662Z,3.17
2022-12-23T02:07:01.553Z,3.03
2022-12-23T02:09:30.488Z,2.97
2022-12-23T02:12:09.921Z,3.53
2022-12-23T02:15:17.771Z,2.78
2022-12-23T02:18:03.806Z,2.53
2022-12-23T02:21:01.226Z,1.85
2022-12-23T02:23:40.951Z,2.08
2022-12-23T02:26:14.626Z,2.97
2022-12-23T02:28:57.266Z,2.38
2022-12-23T02:31:48.347Z,2.20
2022-12-23T02:34:21.113Z,2.70
2022-12-23T02:37:05.453Z,2.58
2022-12-23T02:39:46.077Z,2.40
2022-12-23T02:42:17.282Z,2.10
2022-12-23T02:44:54.465Z,2.55
2022-12-23T02:47:26.731Z,2.50
2022-12-23T02:49:57.948Z,2.05
2022-12-23T02:52:34.960Z,2.25
2022-12-23T02:55:12.397Z,1.83
2022-12-23T02:57:43.633Z,1.92
2022-12-23T03:00:13.177Z,2.05
2022-12-23T03:02:42.283Z,2.05
2022-12-23T03:05:30.748Z,2.78
2022-12-23T03:08:07.074Z,1.70
2022-12-23T03:10:55.385Z,1.63
2022-12-23T03:14:07.533Z,1.75
2022-12-23T03:16:40.489Z,2.40
2022-12-23T03:19:29.502Z,1.35
2022-12-23T03:22:07.533Z,2.20
2022-12-23T03:24:44.358Z,1.38
2022-12-23T03:27:40.082Z,1.30
2022-12-23T03:30:13.113Z,1.90
2022-12-23T03:32:48.846Z,1.23
2022-12-23T03:35:30.046Z,1.00
2022-12-23T03:37:59.921Z,1.02
2022-12-23T03:40:31.307Z,0.70
2022-12-23T03:43:04.405Z,0.93
2022-12-23T03:45:41.796Z,0.60
2022-12-23T03:48:19.794Z,0.80
2022-12-23T03:50:52.363Z,1.05
2022-12-23T03:53:29.834Z,0.70
2022-12-23T03:56:04.658Z,0.63
2022-12-23T03:58:35.419Z,0.60
2022-12-23T04:01:29.221Z,1.03
2022-12-23T04:04:07.091Z,0.60
2022-12-23T04:06:51.823Z,0.75
2022-12-23T04:09:23.131Z,0.70
2022-12-23T04:11:52.436Z,0.60
2022-12-23T04:14:21.856Z,0.70
2022-12-23T04:16:53.838Z,0.47
2022-12-23T04:19:21.735Z,0.60
2022-12-23T04:21:49.447Z,0.60
2022-12-23T04:24:17.114Z,0.47
2022-12-23T04:26:45.085Z,0.75
2022-12-23T04:29:12.895Z,0.63
2022-12-23T04:31:40.551Z,0.60
2022-12-23T04:34:08.417Z,0.95
2022-12-23T04:36:41.645Z,0.50
2022-12-23T04:39:10.506Z,0.60
2022-12-23T04:41:38.017Z,0.57
2022-12-23T04:44:06.347Z,0.85
2022-12-23T04:46:33.943Z,0.40
2022-12-23T04:49:02.367Z,0.65
2022-12-23T04:51:29.796Z,0.50
2022-12-23T04:53:58.851Z,0.50
2022-12-23T04:56:26.477Z,0.50
2022-12-23T04:58:54.077Z,0.50
2022-12-23T05:01:21.691Z,0.60
2022-12-23T05:03:49.349Z,0.40
2022-12-23T05:06:16.917Z,0.60
2022-12-23T05:08:44.527Z,0.50
2022-12-23T05:11:12.690Z,0.60
2022-12-23T05:13:40.139Z,0.50
2022-12-23T05:16:07.750Z,0.40
2022-12-23T05:18:35.356Z,0.50
2022-12-23T05:21:05.086Z,0.50
2022-12-23T05:23:32.868Z,0.50
2022-12-23T05:26:00.423Z,0.45
2022-12-23T05:28:28.349Z,0.50
2022-12-23T05:31:08.955Z,0.47
2022-12-23T05:33:37.014Z,0.50
2022-12-23T05:36:05.883Z,0.50
2022-12-23T05:38:34.199Z,0.50
2022-12-23T05:41:02.339Z,0.50
2022-12-23T05:43:31.078Z,0.40
2022-12-23T05:45:58.653Z,0.50
2022-12-23T05:48:26.430Z,0.60
2022-12-23T05:50:54.061Z,1.67
2022-12-23T05:53:22.001Z,0.55
2022-12-23T05:55:49.634Z,0.60
2022-12-23T05:58:20.679Z,0.50
2022-12-23T06:03:16.869Z,0.60
2022-12-23T06:05:44.625Z,0.50
2022-12-23T06:08:12.330Z,0.40
2022-12-23T06:10:40.163Z,0.40
2022-12-23T06:13:07.606Z,0.50
2022-12-23T06:15:35.111Z,0.50
2022-12-23T06:18:02.712Z,0.50
2022-12-23T06:20:30.637Z,0.60
2022-12-23T06:22:58.460Z,0.50
2022-12-23T06:25:25.911Z,0.60
2022-12-23T06:27:53.524Z,0.50
2022-12-23T06:30:21.114Z,0.50
2022-12-23T06:32:48.753Z,0.70
2022-12-23T06:35:16.432Z,0.70
2022-12-23T06:37:44.735Z,0.50
2022-12-23T06:40:12.760Z,0.57
2022-12-23T06:42:40.746Z,0.63
2022-12-23T06:45:09.220Z,0.43
2022-12-23T06:47:37.290Z,0.50
2022-12-23T06:50:05.569Z,0.60
2022-12-23T06:52:32.998Z,0.50
2022-12-23T06:55:00.461Z,0.70
2022-12-23T06:57:28.027Z,0.50
2022-12-23T06:59:55.659Z,0.60
2022-12-23T07:02:23.248Z,0.70
2022-12-23T07:04:51.544Z,0.60
2022-12-23T07:07:19.220Z,0.68
2022-12-23T07:09:46.860Z,0.50
2022-12-23T07:12:14.955Z,0.57
2022-12-23T07:14:43.072Z,0.80
2022-12-23T07:17:11.026Z,0.55
2022-12-23T07:19:38.920Z,0.60
2022-12-23T07:22:10.421Z,0.80
2022-12-23T07:24:38.001Z,0.75
2022-12-23T07:27:05.463Z,0.60
2022-12-23T07:29:32.982Z,0.95
2022-12-23T07:32:02.602Z,0.60
2022-12-23T07:34:30.492Z,0.73
2022-12-23T07:36:58.083Z,0.60
2022-12-23T07:39:25.824Z,0.60
2022-12-23T07:42:16.489Z,1.05
2022-12-23T07:44:40.825Z,0.73
2022-12-23T07:47:08.968Z,0.70
2022-12-23T07:49:40.480Z,0.63
2022-12-23T07:52:10.572Z,0.55
2022-12-23T07:54:38.124Z,1.00
2022-12-23T07:57:06.020Z,0.90
2022-12-23T07:59:33.601Z,0.85
2022-12-23T08:02:01.334Z,0.68
2022-12-23T08:04:28.958Z,0.88
2022-12-23T08:06:59.751Z,0.80
2022-12-23T08:09:27.539Z,1.00
2022-12-23T08:11:54.973Z,0.68
2022-12-23T08:14:25.330Z,0.70
2022-12-23T08:16:52.838Z,0.70
2022-12-23T08:19:20.449Z,0.60
2022-12-23T08:21:48.001Z,0.70
2022-12-23T08:24:15.967Z,0.50
2022-12-23T08:26:43.657Z,0.57
2022-12-23T08:29:13.689Z,0.68
2022-12-23T08:31:41.549Z,1.15
2022-12-23T08:34:10.659Z,0.65
2022-12-23T08:36:41.043Z,0.70
2022-12-23T08:39:12.482Z,0.60
2022-12-23T08:41:43.654Z,0.50
2022-12-23T08:44:11.175Z,0.70
2022-12-23T08:46:42.508Z,0.60
2022-12-23T08:49:10.803Z,0.68
2022-12-23T08:51:42.681Z,0.70
2022-12-23T08:54:10.788Z,0.63
2022-12-23T08:56:42.572Z,1.00
2022-12-23T08:59:19.052Z,0.50
2022-12-23T09:01:48.177Z,0.40
2022-12-23T09:04:16.098Z,0.50
2022-12-23T09:06:45.420Z,0.70
2022-12-23T09:09:17.788Z,0.77
2022-12-23T09:11:48.287Z,0.68
2022-12-23T09:14:15.777Z,0.65
2022-12-23T09:16:43.251Z,0.60
2022-12-23T09:19:10.931Z,0.60
2022-12-23T09:21:38.565Z,0.68
2022-12-23T09:24:06.961Z,0.57
2022-12-23T09:26:34.734Z,0.60
2022-12-23T09:29:02.582Z,0.50
2022-12-23T09:31:36.180Z,0.50
2022-12-23T09:34:05.396Z,0.60
2022-12-23T09:36:33.084Z,0.50
2022-12-23T09:39:00.708Z,0.60
2022-12-23T09:41:35.101Z,0.73
2022-12-23T09:44:12.842Z,0.80
2022-12-23T09:46:50.386Z,0.52
2022-12-23T09:49:24.396Z,0.73
2022-12-23T09:51:57.050Z,0.57
2022-12-23T09:54:31.086Z,0.50
2022-12-23T09:57:18.594Z,0.93
2022-12-23T10:00:13.174Z,0.60
2022-12-23T10:02:58.943Z,0.55
2022-12-23T10:05:56.527Z,0.50
2022-12-23T10:08:39.199Z,0.73
2022-12-23T10:11:23.689Z,0.82
2022-12-23T10:14:04.645Z,0.68
2022-12-23T10:16:57.155Z,0.50
2022-12-23T10:19:36.711Z,0.63
2022-12-23T10:22:41.887Z,0.50
2022-12-23T10:25:21.960Z,0.40
2022-12-23T10:27:49.600Z,0.60
2022-12-23T10:30:51.282Z,0.50
2022-12-23T10:33:14.661Z,0.90
2022-12-23T10:36:04.175Z,0.50
2022-12-23T10:38:53.243Z,0.60
2022-12-23T10:41:40.743Z,0.50
2022-12-23T10:44:14.663Z,0.50
2022-12-23T10:47:06.704Z,0.55
2022-12-23T10:49:49.084Z,0.57
2022-12-23T10:52:21.643Z,0.93
2022-12-23T10:54:49.635Z,0.43
2022-12-23T10:57:19.746Z,0.52
2022-12-23T10:59:48.164Z,0.50
2022-12-23T11:02:34.630Z,0.77
2022-12-23T11:05:02.355Z,0.70
2022-12-23T11:07:46.975Z,0.63
2022-12-23T11:10:21.787Z,0.70
2022-12-23T11:12:52.639Z,0.50
2022-12-23T11:15:33.664Z,0.80
2022-12-23T11:18:16.413Z,0.57
2022-12-23T11:21:01.761Z,0.60
2022-12-23T11:23:31.976Z,1.23
2022-12-23T11:26:02.766Z,0.70
2022-12-23T11:28:31.649Z,0.55
2022-12-23T11:31:08.645Z,0.50
2022-12-23T11:33:46.633Z,1.38
2022-12-23T11:36:24.225Z,0.57
2022-12-23T11:38:53.295Z,0.55
2022-12-23T11:41:25.139Z,0.60
2022-12-23T11:44:01.450Z,0.50
2022-12-23T11:46:32.002Z,0.65
2022-12-23T11:49:17.821Z,1.10
2022-12-23T11:52:18.844Z,0.60
2022-12-23T11:54:55.713Z,0.40
2022-12-23T11:57:37.303Z,0.45
2022-12-23T12:00:07.827Z,0.50
2022-12-23T12:02:44.803Z,0.73
2022-12-23T12:05:41.665Z,0.90
2022-12-23T12:08:14.884Z,1.02
2022-12-23T12:10:42.942Z,0.65
2022-12-23T12:13:30.507Z,0.90
2022-12-23T12:16:01.463Z,0.80
2022-12-23T12:18:29.987Z,0.70
2022-12-23T12:21:03.988Z,1.00
2022-12-23T12:23:40.272Z,0.75
2022-12-23T12:26:19.034Z,1.13
2022-12-23T12:28:56.868Z,0.50
2022-12-23T12:31:35.502Z,0.80
2022-12-23T12:34:03.471Z,1.00
2022-12-23T12:37:08.959Z,0.60
2022-12-23T12:39:42.287Z,0.70
2022-12-23T12:42:20.594Z,0.70
2022-12-23T12:45:07.882Z,0.73
2022-12-23T12:48:12.776Z,0.70
2022-12-23T12:51:24.643Z,0.88
2022-12-23T12:54:13.678Z,0.82
2022-12-23T12:56:49.398Z,0.75
2022-12-23T12:59:19.801Z,0.70
2022-12-23T13:02:19.626Z,0.95
2022-12-23T13:05:05.454Z,0.88
2022-12-23T13:07:55.140Z,0.80
2022-12-23T13:10:31.741Z,0.63
2022-12-23T13:13:08.125Z,1.27
2022-12-23T13:15:50.602Z,0.60
2022-12-23T13:18:39.700Z,0.70
2022-12-23T13:21:18.217Z,0.73
2022-12-23T13:24:13.931Z,0.60
2022-12-23T13:27:07.119Z,0.50
2022-12-23T13:29:58.548Z,0.80
2022-12-23T13:34:58.299Z,0.70
2022-12-23T13:37:47.159Z,0.60
2022-12-23T13:40:27.328Z,0.50
2022-12-23T13:43:02.521Z,0.82
2022-12-23T13:45:38.796Z,0.95
2022-12-23T13:48:15.531Z,0.80
2022-12-23T13:50:50.840Z,1.73
2022-12-23T13:53:40.329Z,0.98
2022-12-23T13:56:30.373Z,0.70
2022-12-23T13:58:58.738Z,0.70
2022-12-23T14:01:43.800Z,0.80
2022-12-23T14:04:30.960Z,3.10
2022-12-23T14:07:21.652Z,0.80
2022-12-23T14:09:58.528Z,0.80
2022-12-23T14:12:35.507Z,0.90
2022-12-23T14:15:31.694Z,0.85
2022-12-23T14:18:14.972Z,0.80
2022-12-23T14:20:57.142Z,0.73
2022-12-23T14:24:14.590Z,1.10
2022-12-23T14:26:53.933Z,0.80
2022-12-23T14:29:27.394Z,1.05
2022-12-23T14:31:57.746Z,1.30
2022-12-23T14:34:29.378Z,1.00
2022-12-23T14:37:21.068Z,0.73
2022-12-23T14:42:34.487Z,1.45
2022-12-23T14:45:29.957Z,0.88
2022-12-23T14:47:57.442Z,0.90
2022-12-23T14:50:37.355Z,1.17
2022-12-23T14:53:28.846Z,1.30
2022-12-23T14:56:14.302Z,1.00
2022-12-23T14:58:47.796Z,1.23
2022-12-23T15:01:28.953Z,1.73
2022-12-23T15:04:01.667Z,1.20
2022-12-23T15:06:36.812Z,1.17
2022-12-23T15:09:07.418Z,1.05
2022-12-23T15:11:36.618Z,1.63
2022-12-23T15:14:15.459Z,1.60
2022-12-23T15:16:45.117Z,1.20
2022-12-23T15:19:21.200Z,1.10
2022-12-23T15:21:58.202Z,1.20
2022-12-23T15:24:28.007Z,1.20
2022-12-23T15:27:25.182Z,1.63
2022-12-23T15:29:49.559Z,1.30
2022-12-23T15:32:19.535Z,0.88
2022-12-23T15:34:48.832Z,1.38
2022-12-23T15:37:29.188Z,1.60
2022-12-23T15:40:06.526Z,1.33
2022-12-23T15:42:38.684Z,1.45
2022-12-23T15:45:39.665Z,1.58
2022-12-23T15:48:22.480Z,1.23
2022-12-23T15:50:52.831Z,1.00
2022-12-23T15:53:20.755Z,1.60
2022-12-23T15:55:49.787Z,1.13
2022-12-23T15:58:23.722Z,1.40
2022-12-23T16:00:59.005Z,1.90
2022-12-23T16:03:41.687Z,1.27
2022-12-23T16:06:31.881Z,1.25
2022-12-23T16:09:16.597Z,1.50
2022-12-23T16:12:04.025Z,1.50
2022-12-23T16:14:33.523Z,1.92
2022-12-23T16:17:09.917Z,2.00
2022-12-23T16:19:38.661Z,2.30
2022-12-23T16:22:20.580Z,2.25
2022-12-23T16:25:00.192Z,1.42
2022-12-23T16:27:35.352Z,1.90
2022-12-23T16:30:10.999Z,1.73
2022-12-23T16:33:02.618Z,1.83
2022-12-23T16:38:10.163Z,1.83
2022-12-23T16:40:38.605Z,1.70
2022-12-23T16:43:06.200Z,2.53
2022-12-23T16:45:35.697Z,2.03
2022-12-23T16:48:11.283Z,2.67
2022-12-23T16:50:38.891Z,1.45
2022-12-23T16:53:06.540Z,2.65
2022-12-23T16:55:34.005Z,1.77
2022-12-23T16:58:01.520Z,0.77
2022-12-23T17:00:29.208Z,1.08
2022-12-23T17:02:57.416Z,0.80
2022-12-23T17:05:25.355Z,0.70
2022-12-23T17:07:53.113Z,0.52
2022-12-23T17:10:20.665Z,0.60
2022-12-23T17:12:50.317Z,2.17
2022-12-23T17:15:19.037Z,0.70
2022-12-23T17:17:49.577Z,0.77
2022-12-23T17:20:22.891Z,0.50
2022-12-23T17:22:55.467Z,0.70
2022-12-23T17:25:26.746Z,0.68
2022-12-23T17:27:55.798Z,0.75
2022-12-23T17:30:25.626Z,0.70
2022-12-23T17:32:57.514Z,0.68
2022-12-23T17:35:26.062Z,0.68
2022-12-23T17:37:53.820Z,0.60
2022-12-23T17:40:21.377Z,0.57
2022-12-23T17:42:49.095Z,0.65
2022-12-23T17:45:27.175Z,0.60
2022-12-23T17:47:54.982Z,0.50
2022-12-23T17:50:23.294Z,0.60
2022-12-23T17:52:52.346Z,0.52
2022-12-23T17:55:25.439Z,0.60
2022-12-23T17:57:53.301Z,0.57
2022-12-23T18:00:29.797Z,2.90
2022-12-23T18:03:01.488Z,0.70
2022-12-23T18:05:35.075Z,0.70
2022-12-23T18:08:03.403Z,0.47
2022-12-23T18:10:34.337Z,0.70
2022-12-23T18:13:05.117Z,0.50
2022-12-23T18:15:38.207Z,0.50
2022-12-23T18:18:45.839Z,0.70
2022-12-23T18:21:33.113Z,0.60
2022-12-23T18:24:00.809Z,0.60
2022-12-23T18:26:28.351Z,0.70
2022-12-23T18:28:56.612Z,0.50
2022-12-23T18:31:25.828Z,0.73
2022-12-23T18:33:53.770Z,0.50
2022-12-23T18:36:31.809Z,1.15
2022-12-23T18:38:59.960Z,0.73
2022-12-23T18:41:28.424Z,0.70
2022-12-23T18:43:56.637Z,0.57
2022-12-23T18:46:24.258Z,0.52
2022-12-23T18:48:51.854Z,0.70
2022-12-23T18:51:21.183Z,0.70
2022-12-23T18:53:49.187Z,0.40
2022-12-23T18:56:21.500Z,0.70
2022-12-23T18:58:49.083Z,0.60
2022-12-23T19:01:18.249Z,0.43
2022-12-23T19:03:46.120Z,0.60
2022-12-23T19:06:15.376Z,0.55
2022-12-23T19:08:43.898Z,0.77
2022-12-23T19:11:19.091Z,0.52
2022-12-23T19:13:47.861Z,0.55
2022-12-23T19:16:18.688Z,0.88
2022-12-23T19:18:47.718Z,0.50
2022-12-23T19:21:16.533Z,0.50
2022-12-23T19:23:44.692Z,0.50
2022-12-23T19:26:14.144Z,0.50
2022-12-23T19:28:42.415Z,0.93
2022-12-23T19:31:12.412Z,0.60
2022-12-23T19:33:42.427Z,0.40
2022-12-23T19:36:23.409Z,0.70
2022-12-23T19:38:51.297Z,0.70
2022-12-23T19:41:19.096Z,0.52
2022-12-23T19:43:47.637Z,0.70
2022-12-23T19:46:16.328Z,0.70
2022-12-23T19:48:51.605Z,0.60
2022-12-23T19:51:20.013Z,0.50
2022-12-23T19:53:50.738Z,0.70
2022-12-23T19:56:25.171Z,0.60
2022-12-23T19:58:53.955Z,1.02
2022-12-23T20:01:25.021Z,0.75
2022-12-23T20:03:54.657Z,0.50
2022-12-23T20:06:29.010Z,0.70
2022-12-23T20:09:00.809Z,0.50
2022-12-23T20:11:33.224Z,0.70
2022-12-23T20:14:02.851Z,0.40
2022-12-23T20:16:30.744Z,0.60
2022-12-23T20:18:58.341Z,0.60
2022-12-23T20:21:26.008Z,0.40
2022-12-23T20:23:53.831Z,0.40
2022-12-23T20:26:22.899Z,0.55
2022-12-23T20:28:51.419Z,0.50
2022-12-23T20:31:22.602Z,1.15
2022-12-23T20:33:52.292Z,0.50
2022-12-23T20:36:22.683Z,0.40
2022-12-23T20:38:53.218Z,0.50
2022-12-23T20:41:23.885Z,0.40
2022-12-23T20:44:31.501Z,0.57
2022-12-23T20:46:39.713Z,0.60
2022-12-23T20:49:07.385Z,0.50
2022-12-23T20:51:34.940Z,0.40
2022-12-23T20:54:03.311Z,0.47
2022-12-23T20:56:31.767Z,0.50
2022-12-23T20:59:00.232Z,0.73
2022-12-23T21:01:36.657Z,0.40
2022-12-23T21:04:16.141Z,0.50
2022-12-23T21:06:44.825Z,0.60
2022-12-23T21:09:14.807Z,0.80
2022-12-23T21:11:44.634Z,0.50
2022-12-23T21:14:12.451Z,0.50
2022-12-23T21:16:40.884Z,0.40
2022-12-23T21:19:13.166Z,0.47
2022-12-23T21:21:40.760Z,0.70
2022-12-23T21:24:09.418Z,0.60
2022-12-23T21:26:37.195Z,0.73
2022-12-23T21:29:07.193Z,0.50
2022-12-23T21:31:38.029Z,0.80
2022-12-23T21:34:06.965Z,0.60
2022-12-23T21:36:42.715Z,0.60
2022-12-23T21:39:14.638Z,0.50
2022-12-23T21:41:42.792Z,0.70
2022-12-23T21:44:13.613Z,1.70
2022-12-23T21:46:41.662Z,0.50
2022-12-23T21:49:09.637Z,0.95
2022-12-23T21:51:40.625Z,0.80
2022-12-23T21:54:10.410Z,0.90
2022-12-23T21:56:41.865Z,0.60
2022-12-23T21:59:13.767Z,0.73
2022-12-23T22:01:42.712Z,0.50
2022-12-23T22:04:11.086Z,0.70
2022-12-23T22:06:43.707Z,0.90
2022-12-23T22:09:15.035Z,0.50
2022-12-23T22:11:43.394Z,0.60
2022-12-23T22:14:13.719Z,0.60
2022-12-23T22:16:41.461Z,1.35
2022-12-23T22:19:10.926Z,0.40
2022-12-23T22:21:39.939Z,1.33
2022-12-23T22:24:07.738Z,0.90
2022-12-23T22:26:35.936Z,0.60
2022-12-23T22:29:06.052Z,0.50
2022-12-23T22:31:52.955Z,0.60
2022-12-23T22:34:22.635Z,0.65
2022-12-23T22:36:53.917Z,1.17
2022-12-23T22:39:22.098Z,0.50
2022-12-23T22:41:53.102Z,0.50
2022-12-23T22:44:21.783Z,0.88
2022-12-23T22:46:49.541Z,0.70
2022-12-23T22:49:17.743Z,0.85
2022-12-23T22:51:45.425Z,0.80
2022-12-23T22:54:12.905Z,1.08
2022-12-23T22:56:40.550Z,0.90
2022-12-23T22:59:12.890Z,0.90
2022-12-23T23:01:40.640Z,0.70
2022-12-23T23:04:09.491Z,0.90
2022-12-23T23:06:38.779Z,0.60
2022-12-23T23:09:08.580Z,0.98
2022-12-23T23:11:36.661Z,0.68
2022-12-23T23:14:04.245Z,1.08
2022-12-23T23:16:32.325Z,0.77
2022-12-23T23:19:00.183Z,0.77
2022-12-23T23:21:27.727Z,0.90
2022-12-23T23:23:55.236Z,0.70
2022-12-23T23:26:27.045Z,0.80
2022-12-23T23:28:59.286Z,0.98
2022-12-23T23:31:43.598Z,0.90
2022-12-23T23:34:12.876Z,0.75
2022-12-23T23:36:40.682Z,0.90
2022-12-23T23:39:08.765Z,1.08
2022-12-23T23:41:36.463Z,1.10
2022-12-23T23:44:04.365Z,0.85
2022-12-23T23:46:32.166Z,0.80
2022-12-23T23:48:59.751Z,0.70
2022-12-23T23:51:27.733Z,0.60
2022-12-23T23:53:55.526Z,1.33
2022-12-23T23:56:25.703Z,1.42
2022-12-23T23:58:55.091Z,1.20
